Create Tblcommutelog Verified Points Advance Search
| # | Trip ID | Id Commuter | Trip Date | Trip Num | Current Lat | Current Lng | Delta Distance | Current Time | Activity | Activity Confidence | Current Speed | |
|---|---|---|---|---|---|---|---|---|---|---|---|---|
| 69801 | 250627_783548_6438355_0820 | 783548 | (not set) | (not set) | 38.959011167107 | -77.033468715856 | 0.8976 | 2025-06-27 12:26:00.28 | in_vehicle | 100 | 4.8190832118877 | |
| 69802 | 250627_764454_16507126_0710 | 764454 | (not set) | (not set) | 38.903190678207 | -77.049986205586 | 36.5797 | 2025-06-27 12:26:04.328 | on_foot | 100 | 0.23246041467362 | |
| 69803 | 250627_785147_16514010_0716 | 785147 | (not set) | (not set) | 38.9799493 | -77.43105045 | 53.3456 | 2025-06-27 12:26:09.686 | in_vehicle | 100 | 8.7172655502606 | |
| 69804 | 250627_785402_16456333_0825 | 785402 | (not set) | (not set) | 39.3279817 | -76.633329 | 0 | 2025-06-27 12:26:09.893 | walking | 100 | -0.44703925898772 | |
| 69805 | 250627_785402_16456333_0825 | 785402 | (not set) | (not set) | 39.3280259 | -76.633365 | 0 | 2025-06-27 12:26:11.483 | walking | 100 | 0.10281902956718 | |
| 69806 | 250627_785402_16456333_0825 | 785402 | (not set) | (not set) | 39.3280245 | -76.6333619 | 0 | 2025-06-27 12:26:13.149 | walking | 100 | 0.17881570359509 | |
| 69807 | 250627_783548_6438355_0820 | 783548 | (not set) | (not set) | 38.957644749164 | -77.033463730662 | 0.9918 | 2025-06-27 12:26:15.277 | in_vehicle | 100 | 4.4659221972874 | |
| 69808 | 250627_739501_16500693_0812 | 739501 | (not set) | (not set) | 38.814676675608 | -77.053528118808 | 0 | 2025-06-27 12:26:17.321 | on_foot | 100 | -0.44703925898772 | |
| 69809 | 250627_783145_6419315_0825 | 783145 | (not set) | (not set) | 39.18081107472 | -76.835346036625 | 0.1643 | 2025-06-27 12:26:56.07 | in_vehicle | 100 | 0.18328609618497 | |
| 69810 | 250627_780832_16421763_0822 | 780832 | (not set) | (not set) | 38.863068625774 | -77.060275674301 | 0 | 2025-06-27 12:26:56.165 | on_foot | 100 | -0.44703925898772 | |
| 69811 | 250627_780832_16421763_0822 | 780832 | (not set) | (not set) | 38.863068625774 | -77.060275674301 | 0.1837 | 2025-06-27 12:26:56.252 | on_foot | 100 | -0.44703925898772 | |
| 69812 | 250627_785264_6438355_0715 | 785264 | (not set) | (not set) | 38.901387324383 | -77.04339282996 | 25.1071 | 2025-06-27 12:26:59.434 | on_foot | 100 | 0.52303593301564 | |
| 69813 | 250627_783548_6438355_0820 | 783548 | (not set) | (not set) | 38.953444138122 | -77.033463185925 | 1.2816 | 2025-06-27 12:27:04.244 | in_vehicle | 100 | 4.6670898638318 | |
| 69814 | 250627_739501_16500693_0812 | 739501 | (not set) | (not set) | 38.823159918595 | -77.04764635131 | 1.4312 | 2025-06-27 12:27:07.985 | in_vehicle | 100 | 9.9555642976566 | |
| 69815 | 250627_783145_6419315_0825 | 783145 | (not set) | (not set) | 39.180374598216 | -76.835506088508 | 0.1956 | 2025-06-27 12:27:08.865 | in_vehicle | 100 | 2.5972980947187 | |
| 69816 | 250627_784667_16513832_0827 | 784667 | (not set) | (not set) | 38.9012941 | -77.033601 | 0 | 2025-06-27 12:27:17.406 | still | 100 | 0.013411177769632 | |
| 69817 | 250627_739501_16500693_0812 | 739501 | (not set) | (not set) | 38.82544083398 | -77.046931077416 | 1.5932 | 2025-06-27 12:27:18.365 | in_vehicle | 100 | 9.9689754754263 | |
| 69818 | 250627_783548_6438355_0820 | 783548 | (not set) | (not set) | 38.952057916819 | -77.033483504953 | 1.3772 | 2025-06-27 12:27:19.262 | in_vehicle | 100 | 4.0546460790187 | |
| 69819 | 250627_785402_16456333_0825 | 785402 | (not set) | (not set) | 39.3283262 | -76.6338238 | 0.0308 | 2025-06-27 12:27:20.627 | walking | 100 | 0.55879907373466 | |
| 69820 | 250627_780933_16509153_0720 | 780933 | (not set) | (not set) | 38.900900392265 | -77.007134018897 | 40.3639 | 2025-06-27 12:27:23.275 | on_foot | 100 | 0.52750632560551 |